Staplehurst, United Kingdom
Current Conditions -  °F | °C
As of 6:50 PM on Friday 24 Oct 2014 (Local Time) from EGMD Reporting Station
Broken Clouds Broken Clouds  
Wind Chill: 61°   Ceiling: 800
Heat Index: 61°   Visibility: 5mi
Dew Point: 61°   Wind: 17mph
Humidity: 100%   Direction: 230°SW
Pressure: 29.94"   Gusts: NA
Location:  51.16°N, 0.55°E
Report Text: EGMD 241750Z 23015KT 8000 BKN008 16/16 Q1014
Loading
Personal Weather Stations






























Interactive Weather Map New forecast layout! Learn more

10-Day Weather Forecast

Advertisements
Track Severe Weather on mobile